Time;durP1;ratioP1;P1;durP2;ratioP2;P2;SDS_P1;SDS_P2;PMS_P1;PMS_P2;Temp;Humidity;BMP_temperature;BMP_pressure;BME280_temperature;BME280_humidity;BME280_pressure;Samples;Min_cycle;Max_cycle;Signal;HPM_P1;HPM_P2
2024/03/20 00:04:45;;;;;;;64.45;34.88;;;;;;;;;;13008283;22;20425;-92
2024/03/20 00:09:47;;;;;;;66.68;34.80;;;;;;;;;;13000743;22;20371;-91
2024/03/20 00:14:49;;;;;;;70.25;34.78;;;;;;;;;;12985131;22;20386;-91
2024/03/20 00:19:54;;;;;;;67.88;34.97;;;;;;;;;;12986157;22;20375;-92
2024/03/20 00:24:56;;;;;;;67.15;35.20;;;;;;;;;;12986016;22;20371;-91
2024/03/20 00:29:59;;;;;;;70.63;35.53;;;;;;;;;;12986080;22;20390;-91
2024/03/20 00:35:05;;;;;;;64.27;33.47;;;;;;;;;;12985528;22;20386;-91
2024/03/20 00:40:09;;;;;;;73.97;34.67;;;;;;;;;;12984988;22;20810;-91
2024/03/20 00:45:12;;;;;;;67.27;34.10;;;;;;;;;;13007243;22;20826;-92
2024/03/20 00:50:15;;;;;;;69.32;35.13;;;;;;;;;;12984953;22;20416;-92
2024/03/20 00:55:18;;;;;;;64.53;33.78;;;;;;;;;;12985328;22;20390;-91
2024/03/20 01:00:20;;;;;;;65.03;34.03;;;;;;;;;;12985276;22;20358;-91
2024/03/20 01:05:24;;;;;;;66.13;33.13;;;;;;;;;;12985719;22;20823;-91
2024/03/20 01:10:26;;;;;;;64.88;34.40;;;;;;;;;;12983207;22;20362;-91
2024/03/20 01:15:28;;;;;;;65.60;34.13;;;;;;;;;;12983708;22;20460;-92
2024/03/20 01:20:32;;;;;;;65.75;34.60;;;;;;;;;;12982616;22;20362;-92
2024/03/20 01:25:34;;;;;;;67.30;34.80;;;;;;;;;;12984476;22;20826;-90
2024/03/20 01:30:36;;;;;;;68.80;34.03;;;;;;;;;;12984513;22;20370;-90
2024/03/20 01:35:40;;;;;;;58.90;31.77;;;;;;;;;;12982924;22;20386;-91
2024/03/20 01:40:42;;;;;;;68.73;33.30;;;;;;;;;;12984523;22;20367;-92
2024/03/20 01:45:44;;;;;;;66.60;32.80;;;;;;;;;;12983536;22;20362;-91
2024/03/20 01:50:48;;;;;;;68.88;34.40;;;;;;;;;;12983885;22;20382;-92
2024/03/20 01:55:50;;;;;;;71.65;34.38;;;;;;;;;;12982323;22;20436;-91
2024/03/20 02:00:53;;;;;;;68.87;33.83;;;;;;;;;;12983918;22;20367;-91
2024/03/20 02:05:56;;;;;;;71.97;34.20;;;;;;;;;;12983070;22;20370;-91
2024/03/20 02:10:58;;;;;;;70.30;34.50;;;;;;;;;;12982815;22;21175;-92
2024/03/20 02:16:00;;;;;;;68.93;33.33;;;;;;;;;;12978632;22;20749;-92
2024/03/20 02:21:07;;;;;;;66.68;33.05;;;;;;;;;;12984053;22;20374;-92
2024/03/20 02:26:10;;;;;;;67.40;31.53;;;;;;;;;;12984974;22;20378;-92
2024/03/20 02:31:13;;;;;;;69.50;32.47;;;;;;;;;;12983577;22;20431;-91
2024/03/20 02:36:16;;;;;;;64.95;31.33;;;;;;;;;;12984123;22;20823;-91
2024/03/20 02:41:19;;;;;;;68.35;32.63;;;;;;;;;;12983572;22;20378;-91
2024/03/20 02:46:21;;;;;;;64.18;32.03;;;;;;;;;;12984154;22;20404;-91
2024/03/20 02:51:25;;;;;;;68.45;30.83;;;;;;;;;;12984278;22;20397;-91
2024/03/20 02:56:27;;;;;;;71.82;31.98;;;;;;;;;;12983096;22;20362;-92
2024/03/20 03:01:29;;;;;;;62.88;30.40;;;;;;;;;;13005227;22;20367;-91
2024/03/20 03:06:33;;;;;;;63.08;29.40;;;;;;;;;;12983958;22;20371;-92
2024/03/20 03:11:36;;;;;;;59.78;28.08;;;;;;;;;;12983542;22;20673;-91
2024/03/20 03:16:38;;;;;;;61.50;29.57;;;;;;;;;;13004849;22;20676;-90
2024/03/20 03:21:42;;;;;;;63.15;29.83;;;;;;;;;;13008933;22;20782;-91
2024/03/20 03:26:44;;;;;;;61.33;30.47;;;;;;;;;;12986620;22;20375;-91
2024/03/20 03:31:47;;;;;;;62.63;29.50;;;;;;;;;;12987108;22;20371;-92
2024/03/20 03:36:51;;;;;;;65.35;28.85;;;;;;;;;;12986871;22;20371;-92
2024/03/20 03:41:53;;;;;;;61.85;28.95;;;;;;;;;;12986175;22;20367;-92
2024/03/20 03:46:55;;;;;;;60.45;28.35;;;;;;;;;;12986233;22;20370;-91
2024/03/20 03:51:59;;;;;;;57.73;28.63;;;;;;;;;;12986412;22;20452;-92
2024/03/20 03:57:01;;;;;;;60.88;29.38;;;;;;;;;;12985557;22;20370;-92
2024/03/20 04:02:03;;;;;;;58.30;28.10;;;;;;;;;;12986521;22;20421;-92
2024/03/20 04:07:07;;;;;;;58.85;28.85;;;;;;;;;;12985841;22;20362;-91
2024/03/20 04:12:09;;;;;;;62.40;28.45;;;;;;;;;;12985764;22;20440;-92
2024/03/20 04:17:11;;;;;;;62.47;30.10;;;;;;;;;;13007898;22;20367;-91
2024/03/20 04:22:15;;;;;;;64.20;29.95;;;;;;;;;;12985193;22;20371;-92
2024/03/20 04:27:17;;;;;;;65.07;30.30;;;;;;;;;;12985393;22;20412;-92
2024/03/20 04:32:20;;;;;;;58.67;29.25;;;;;;;;;;12983196;22;20387;-92
2024/03/20 04:37:23;;;;;;;58.97;28.55;;;;;;;;;;12987266;22;20366;-91
2024/03/20 04:42:26;;;;;;;59.83;28.25;;;;;;;;;;12985718;22;20367;-84
2024/03/20 04:47:28;;;;;;;61.93;30.77;;;;;;;;;;13007090;22;20366;-91
2024/03/20 04:52:31;;;;;;;62.20;29.70;;;;;;;;;;12985602;22;20850;-92
2024/03/20 04:57:34;;;;;;;60.07;28.83;;;;;;;;;;12985990;22;20363;-92
2024/03/20 05:02:36;;;;;;;62.77;29.63;;;;;;;;;;12984910;22;20355;-92
2024/03/20 05:07:39;;;;;;;59.60;29.13;;;;;;;;;;12984481;22;20757;-91
2024/03/20 05:12:42;;;;;;;59.92;29.33;;;;;;;;;;12984224;22;20375;-92
2024/03/20 05:17:44;;;;;;;58.75;29.60;;;;;;;;;;12984520;22;20846;-92
2024/03/20 05:22:47;;;;;;;62.13;29.48;;;;;;;;;;12985553;22;20366;-91
2024/03/20 05:27:50;;;;;;;61.35;29.20;;;;;;;;;;13005651;22;20408;-91
2024/03/20 05:32:52;;;;;;;62.85;29.90;;;;;;;;;;12985176;22;20904;-91
2024/03/20 05:37:55;;;;;;;65.87;29.73;;;;;;;;;;13005792;22;20359;-91
2024/03/20 05:42:58;;;;;;;68.57;30.80;;;;;;;;;;12984960;22;20370;-91
2024/03/20 05:48:00;;;;;;;65.28;30.45;;;;;;;;;;12980464;22;20428;-90
2024/03/20 05:53:04;;;;;;;63.55;30.13;;;;;;;;;;12981642;22;20409;-90
2024/03/20 05:58:06;;;;;;;65.43;30.17;;;;;;;;;;12952331;22;20358;-91
2024/03/20 06:03:08;;;;;;;62.03;29.40;;;;;;;;;;12980475;22;20436;-94
2024/03/20 06:08:12;;;;;;;60.40;27.13;;;;;;;;;;12978691;22;20371;-90
2024/03/20 06:13:14;;;;;;;61.70;28.47;;;;;;;;;;12977853;22;20413;-91
2024/03/20 06:18:16;;;;;;;59.30;28.40;;;;;;;;;;12975660;22;20838;-91
2024/03/20 06:23:20;;;;;;;63.05;27.17;;;;;;;;;;12979076;22;20366;-91
2024/03/20 06:28:22;;;;;;;60.72;27.92;;;;;;;;;;12982415;22;20371;-91
2024/03/20 06:33:24;;;;;;;63.05;27.33;;;;;;;;;;12984544;22;20378;-90
2024/03/20 06:38:29;;;;;;;57.15;25.52;;;;;;;;;;12983437;22;20424;-90
2024/03/20 06:43:34;;;;;;;57.35;25.42;;;;;;;;;;12983111;22;20374;-89
2024/03/20 06:48:36;;;;;;;56.27;25.47;;;;;;;;;;12981250;22;20367;-90
2024/03/20 06:53:40;;;;;;;58.08;25.92;;;;;;;;;;12979162;22;20383;-91
2024/03/20 06:58:42;;;;;;;50.33;22.60;;;;;;;;;;12983465;22;20432;-90
2024/03/20 07:03:44;;;;;;;51.43;23.17;;;;;;;;;;12984298;22;20367;-91
2024/03/20 07:08:49;;;;;;;51.50;23.00;;;;;;;;;;13007425;22;20830;-90
2024/03/20 07:13:51;;;;;;;51.60;23.95;;;;;;;;;;13005924;22;20382;-91
2024/03/20 07:18:53;;;;;;;47.03;21.92;;;;;;;;;;12982467;22;20363;-90
2024/03/20 07:23:57;;;;;;;43.65;20.02;;;;;;;;;;12985812;22;20363;-89
2024/03/20 07:28:59;;;;;;;40.75;19.80;;;;;;;;;;12987082;22;20440;-90
2024/03/20 07:34:01;;;;;;;35.97;18.43;;;;;;;;;;12987999;22;20440;-90
2024/03/20 07:39:07;;;;;;;27.10;13.77;;;;;;;;;;13007797;22;20496;-90
2024/03/20 07:44:09;;;;;;;19.70;11.05;;;;;;;;;;12986960;22;20432;-87
2024/03/20 07:49:11;;;;;;;17.85;9.70;;;;;;;;;;13008118;22;20367;-90
2024/03/20 07:54:15;;;;;;;17.10;9.90;;;;;;;;;;12985299;22;20791;-90
2024/03/20 07:59:18;;;;;;;19.05;10.60;;;;;;;;;;13009832;22;20363;-90
2024/03/20 08:04:20;;;;;;;16.17;9.63;;;;;;;;;;13008672;22;20363;-91
2024/03/20 08:09:23;;;;;;;17.70;10.27;;;;;;;;;;12987242;22;20370;-90
2024/03/20 08:14:26;;;;;;;17.52;10.23;;;;;;;;;;12990653;22;20421;-90
2024/03/20 08:19:28;;;;;;;17.38;10.38;;;;;;;;;;13006367;22;20807;-90
2024/03/20 08:24:31;;;;;;;18.83;11.02;;;;;;;;;;12985033;22;20375;-91
2024/03/20 08:29:34;;;;;;;19.40;11.23;;;;;;;;;;12986329;22;20397;-90
2024/03/20 08:34:36;;;;;;;21.17;11.63;;;;;;;;;;12985424;22;20409;-90
2024/03/20 08:39:39;;;;;;;21.20;11.83;;;;;;;;;;12985625;22;20379;-91
2024/03/20 08:44:45;;;;;;;21.63;11.95;;;;;;;;;;12986009;22;20401;-91
2024/03/20 08:49:47;;;;;;;23.10;12.87;;;;;;;;;;12986205;22;20431;-91
2024/03/20 08:54:50;;;;;;;23.17;12.60;;;;;;;;;;12985555;22;20383;-91
2024/03/20 08:59:53;;;;;;;26.92;13.95;;;;;;;;;;12984072;22;20397;-92
2024/03/20 09:04:55;;;;;;;31.73;15.13;;;;;;;;;;12984879;22;20900;-92
2024/03/20 09:09:58;;;;;;;31.23;14.50;;;;;;;;;;13006320;22;20370;-91
2024/03/20 09:15:00;;;;;;;25.73;14.40;;;;;;;;;;12986612;22;20496;-92
2024/03/20 09:20:04;;;;;;;32.80;14.90;;;;;;;;;;12983804;22;20374;-92
2024/03/20 09:25:08;;;;;;;31.80;15.02;;;;;;;;;;12984445;22;20385;-92
2024/03/20 09:30:15;;;;;;;29.55;14.13;;;;;;;;;;12984702;22;20355;-90
2024/03/20 09:35:17;;;;;;;32.40;15.10;;;;;;;;;;12981257;22;20416;-92
2024/03/20 09:40:22;;;;;;;33.10;16.08;;;;;;;;;;12982329;22;20366;-92
2024/03/20 09:45:24;;;;;;;32.55;15.10;;;;;;;;;;12982784;22;20428;-91
2024/03/20 09:50:30;;;;;;;35.60;16.10;;;;;;;;;;12981985;22;20370;-92
2024/03/20 09:55:37;;;;;;;34.30;16.02;;;;;;;;;;12983115;22;20402;-92
2024/03/20 10:00:39;;;;;;;36.60;16.00;;;;;;;;;;12989664;22;20428;-92
2024/03/20 10:05:41;;;;;;;31.25;15.90;;;;;;;;;;12984651;22;20362;-92
2024/03/20 10:10:46;;;;;;;33.77;15.53;;;;;;;;;;12982702;22;20382;-92
2024/03/20 10:15:48;;;;;;;32.92;15.70;;;;;;;;;;12981869;22;20378;-91
2024/03/20 10:20:51;;;;;;;32.10;14.93;;;;;;;;;;12984204;22;20383;-92
2024/03/20 10:25:58;;;;;;;28.60;13.97;;;;;;;;;;12981561;22;20424;-92
2024/03/20 10:31:03;;;;;;;27.48;13.50;;;;;;;;;;12982665;22;20367;-92
2024/03/20 10:36:06;;;;;;;24.77;13.07;;;;;;;;;;13004948;22;20370;-92
2024/03/20 10:41:13;;;;;;;29.00;13.52;;;;;;;;;;12983671;22;20476;-92
2024/03/20 10:46:16;;;;;;;27.95;13.82;;;;;;;;;;12983132;22;20424;-91
2024/03/20 10:51:19;;;;;;;24.13;11.07;;;;;;;;;;12986171;22;20370;-90
2024/03/20 10:56:22;;;;;;;26.47;12.27;;;;;;;;;;12981846;22;20427;-91
2024/03/20 11:01:25;;;;;;;22.30;11.77;;;;;;;;;;12989378;22;20429;-91
2024/03/20 11:06:40;;;;;;;23.65;11.90;;;;;;;;;;12995921;22;20371;-92
2024/03/20 11:11:45;;;;;;;22.52;11.30;;;;;;;;;;12994356;22;20367;-92
2024/03/20 11:16:50;;;;;;;22.07;11.73;;;;;;;;;;12995583;22;20470;-92
2024/03/20 11:21:53;;;;;;;23.13;12.25;;;;;;;;;;12995287;22;20665;-85
2024/03/20 11:26:57;;;;;;;18.58;9.90;;;;;;;;;;12987356;22;20375;-90
2024/03/20 11:31:59;;;;;;;21.73;11.23;;;;;;;;;;12995377;22;20444;-88
2024/03/20 11:37:02;;;;;;;21.83;10.75;;;;;;;;;;12996147;22;20383;-91
2024/03/20 11:42:06;;;;;;;20.23;11.25;;;;;;;;;;12998586;22;20396;-91
2024/03/20 11:47:12;;;;;;;17.73;9.10;;;;;;;;;;12998082;22;20363;-92
2024/03/20 11:52:15;;;;;;;18.88;10.05;;;;;;;;;;12998438;22;20811;-90
2024/03/20 11:57:20;;;;;;;19.67;10.27;;;;;;;;;;12994831;22;20413;-92
2024/03/20 12:02:22;;;;;;;17.20;9.48;;;;;;;;;;12999771;22;20363;-91
2024/03/20 12:07:25;;;;;;;15.65;8.15;;;;;;;;;;13002224;22;20378;-92
2024/03/20 12:12:29;;;;;;;20.70;10.37;;;;;;;;;;12998023;22;20401;-88
2024/03/20 12:17:32;;;;;;;17.27;9.00;;;;;;;;;;12998245;22;20379;-88
2024/03/20 12:22:34;;;;;;;16.88;9.77;;;;;;;;;;12994132;22;20397;-88
2024/03/20 12:27:38;;;;;;;19.92;11.55;;;;;;;;;;12988720;22;20822;-91
2024/03/20 12:32:40;;;;;;;19.95;11.50;;;;;;;;;;12983301;22;20371;-91
2024/03/20 12:37:45;;;;;;;20.33;11.50;;;;;;;;;;12977870;22;20386;-90
2024/03/20 12:42:48;;;;;;;22.67;12.20;;;;;;;;;;12976932;22;20924;-89
2024/03/20 12:47:50;;;;;;;22.00;11.98;;;;;;;;;;12977437;22;20382;-91
2024/03/20 12:52:53;;;;;;;22.55;12.32;;;;;;;;;;12975596;22;20405;-85
2024/03/20 12:57:56;;;;;;;18.73;10.50;;;;;;;;;;12972958;22;20390;-88
2024/03/20 13:02:58;;;;;;;17.80;10.27;;;;;;;;;;12976251;22;20835;-89
2024/03/20 13:08:01;;;;;;;21.88;11.95;;;;;;;;;;12975927;22;20362;-77
2024/03/20 13:13:05;;;;;;;17.43;10.07;;;;;;;;;;12977652;22;20424;-89
2024/03/20 13:18:28;;;;;;;19.33;10.83;;;;;;;;;;12979676;22;21174;-89
2024/03/20 13:23:31;;;;;;;17.15;10.07;;;;;;;;;;12979518;22;20427;-89
2024/03/20 13:28:35;;;;;;;15.37;9.53;;;;;;;;;;12979585;22;20371;-89
2024/03/20 13:33:37;;;;;;;17.42;10.35;;;;;;;;;;13002390;22;20730;-89
2024/03/20 13:38:43;;;;;;;16.93;10.43;;;;;;;;;;12982049;22;20382;-90
2024/03/20 14:14:47;;;;;;;15.65;9.20;;;;;;;;;;12961562;22;1964234;-89
2024/03/20 14:19:50;;;;;;;14.90;8.77;;;;;;;;;;13043581;22;20414;-88
2024/03/20 14:24:52;;;;;;;11.47;7.30;;;;;;;;;;13059964;22;20436;-88
2024/03/20 14:29:56;;;;;;;14.00;7.38;;;;;;;;;;13062095;22;20365;-88
2024/03/20 14:34:58;;;;;;;11.50;7.00;;;;;;;;;;13061092;22;20466;-88
2024/03/20 14:40:00;;;;;;;12.57;7.23;;;;;;;;;;13062051;22;20360;-88
2024/03/20 14:45:04;;;;;;;11.77;7.20;;;;;;;;;;13084392;22;20376;-89
2024/03/20 14:50:09;;;;;;;13.00;7.73;;;;;;;;;;13062188;22;20418;-88
2024/03/20 14:55:17;;;;;;;12.10;7.20;;;;;;;;;;13062559;22;20361;-84
2024/03/20 15:00:21;;;;;;;10.90;6.55;;;;;;;;;;13043790;22;20389;-89
2024/03/20 15:05:25;;;;;;;11.98;6.85;;;;;;;;;;13042581;22;20412;-89
2024/03/20 15:10:27;;;;;;;10.23;5.95;;;;;;;;;;13060291;22;20659;-89
2024/03/20 15:15:32;;;;;;;9.82;6.28;;;;;;;;;;13063583;22;20837;-89
2024/03/20 15:20:37;;;;;;;8.70;5.80;;;;;;;;;;13039879;22;20373;-90
2024/03/20 15:25:39;;;;;;;10.97;6.40;;;;;;;;;;13061640;22;20431;-89
2024/03/20 15:30:42;;;;;;;9.48;6.38;;;;;;;;;;13040471;22;20439;-89
2024/03/20 15:35:44;;;;;;;9.13;5.70;;;;;;;;;;13039150;22;20365;-84
2024/03/20 15:40:47;;;;;;;7.47;5.28;;;;;;;;;;13038485;22;20435;-84
2024/03/20 15:45:51;;;;;;;7.65;5.45;;;;;;;;;;13037985;22;20388;-85
2024/03/20 15:50:54;;;;;;;11.00;6.18;;;;;;;;;;13037552;22;20365;-85
2024/03/20 15:56:00;;;;;;;8.40;5.28;;;;;;;;;;13034750;22;20667;-86
2024/03/20 16:01:05;;;;;;;8.45;5.03;;;;;;;;;;13036368;22;20452;-84
2024/03/20 16:06:08;;;;;;;7.28;5.03;;;;;;;;;;13033405;22;20385;-85
2024/03/20 16:11:10;;;;;;;7.53;5.40;;;;;;;;;;13034344;22;20368;-84
2024/03/20 16:16:17;;;;;;;7.85;5.18;;;;;;;;;;13033576;22;20744;-84
2024/03/20 16:21:20;;;;;;;8.10;5.68;;;;;;;;;;13032011;22;20360;-84
2024/03/20 16:26:22;;;;;;;9.77;5.40;;;;;;;;;;13031448;22;20834;-85
2024/03/20 16:31:28;;;;;;;13.73;5.57;;;;;;;;;;13035145;22;20391;-84
2024/03/20 16:36:30;;;;;;;8.18;5.35;;;;;;;;;;13034954;22;20735;-84
2024/03/20 16:41:33;;;;;;;7.18;5.00;;;;;;;;;;13036446;22;20419;-84
2024/03/20 16:46:37;;;;;;;9.07;5.40;;;;;;;;;;13037282;22;20472;-86
2024/03/20 16:51:39;;;;;;;9.23;5.57;;;;;;;;;;13035147;22;20365;-84
2024/03/20 16:56:42;;;;;;;9.70;5.67;;;;;;;;;;13033590;22;20357;-85
2024/03/20 17:01:45;;;;;;;13.82;7.38;;;;;;;;;;13059105;22;20824;-91
2024/03/20 17:06:48;;;;;;;10.40;6.40;;;;;;;;;;13043879;22;20381;-92
2024/03/20 17:11:50;;;;;;;12.37;7.03;;;;;;;;;;13053521;22;20971;-91
2024/03/20 17:16:54;;;;;;;10.65;6.72;;;;;;;;;;13038027;22;20407;-89
2024/03/20 17:21:56;;;;;;;16.80;11.27;;;;;;;;;;13037640;22;20368;-91
2024/03/20 17:26:59;;;;;;;16.35;10.00;;;;;;;;;;13037037;22;20388;-91
2024/03/20 17:32:03;;;;;;;11.63;7.80;;;;;;;;;;13038872;22;20454;-89
2024/03/20 17:37:05;;;;;;;10.70;7.10;;;;;;;;;;13035706;22;20377;-91
2024/03/20 17:42:08;;;;;;;11.10;7.88;;;;;;;;;;13037519;22;20369;-89
2024/03/20 17:47:14;;;;;;;14.47;9.33;;;;;;;;;;13047294;22;20377;-90
2024/03/20 17:52:16;;;;;;;16.55;10.07;;;;;;;;;;13037143;22;20438;-87
2024/03/20 17:57:20;;;;;;;16.37;10.37;;;;;;;;;;13049413;22;20419;-90
2024/03/20 18:02:24;;;;;;;15.82;11.00;;;;;;;;;;13036618;22;20373;-91
2024/03/20 18:07:27;;;;;;;19.92;12.00;;;;;;;;;;13035431;22;20389;-91
2024/03/20 18:12:31;;;;;;;19.13;11.55;;;;;;;;;;13057407;22;20381;-91
2024/03/20 18:17:35;;;;;;;19.90;13.50;;;;;;;;;;13039139;22;20373;-89
2024/03/20 18:22:38;;;;;;;18.75;12.77;;;;;;;;;;13038511;22;20364;-91
2024/03/20 18:27:40;;;;;;;29.10;15.63;;;;;;;;;;13039466;22;20740;-91
2024/03/20 18:32:44;;;;;;;26.05;15.88;;;;;;;;;;13038622;22;20381;-91
2024/03/20 18:37:46;;;;;;;20.83;13.43;;;;;;;;;;13042796;22;20373;-89
2024/03/20 18:42:48;;;;;;;23.83;13.83;;;;;;;;;;13049471;22;20435;-90
2024/03/20 18:47:55;;;;;;;24.05;13.88;;;;;;;;;;13044361;22;20384;-89
2024/03/20 18:53:00;;;;;;;22.13;13.80;;;;;;;;;;13042002;22;20841;-89
2024/03/20 18:58:06;;;;;;;22.77;13.98;;;;;;;;;;13042749;22;20407;-87
2024/03/20 19:03:13;;;;;;;20.90;13.07;;;;;;;;;;13041471;22;20434;-89
2024/03/20 19:08:16;;;;;;;19.87;13.30;;;;;;;;;;13040087;22;20713;-89
2024/03/20 19:13:22;;;;;;;22.02;14.35;;;;;;;;;;13037699;22;20376;-90
2024/03/20 19:18:29;;;;;;;23.70;13.82;;;;;;;;;;13041759;22;20373;-90
2024/03/20 19:23:34;;;;;;;21.73;13.83;;;;;;;;;;13036663;22;20412;-91
2024/03/20 19:28:44;;;;;;;22.83;14.32;;;;;;;;;;13036072;22;20416;-89
2024/03/20 19:33:51;;;;;;;24.80;15.25;;;;;;;;;;13058480;22;20681;-89
2024/03/20 19:38:54;;;;;;;25.57;15.10;;;;;;;;;;13034979;22;20415;-90
2024/03/20 19:43:58;;;;;;;30.00;17.60;;;;;;;;;;13040832;22;20697;-87
2024/03/20 19:49:02;;;;;;;27.25;17.20;;;;;;;;;;13037922;22;20376;-89
2024/03/20 19:54:05;;;;;;;29.53;18.03;;;;;;;;;;13037280;22;20376;-90
2024/03/20 19:59:10;;;;;;;30.45;17.98;;;;;;;;;;13041007;22;20381;-88
2024/03/20 20:04:16;;;;;;;31.03;17.80;;;;;;;;;;13040241;22;20373;-89
2024/03/20 20:09:21;;;;;;;26.60;17.88;;;;;;;;;;13040066;22;20682;-91
2024/03/20 20:14:26;;;;;;;25.90;18.13;;;;;;;;;;13040235;22;20446;-90
2024/03/20 20:19:33;;;;;;;29.23;17.55;;;;;;;;;;13036596;22;20377;-90
2024/03/20 20:24:37;;;;;;;27.67;17.47;;;;;;;;;;13038929;22;20377;-91
2024/03/20 20:29:42;;;;;;;28.73;18.02;;;;;;;;;;13039261;22;20381;-91
2024/03/20 20:34:48;;;;;;;30.98;18.17;;;;;;;;;;13034735;22;20384;-90
2024/03/20 20:39:53;;;;;;;28.98;17.80;;;;;;;;;;13035304;22;20361;-91
2024/03/20 20:44:56;;;;;;;29.10;18.05;;;;;;;;;;13036382;22;20423;-90
2024/03/20 20:50:01;;;;;;;30.50;17.80;;;;;;;;;;13038318;22;20389;-91
2024/03/20 20:55:04;;;;;;;27.48;17.80;;;;;;;;;;13035436;22;20380;-88
2024/03/20 21:00:09;;;;;;;25.90;17.15;;;;;;;;;;13039516;22;20372;-90
2024/03/20 21:21:18;;;;;;;27.88;18.20;;;;;;;;;;12984164;22;20401;-91
2024/03/20 21:26:23;;;;;;;29.30;17.77;;;;;;;;;;12974773;22;20417;-91
2024/03/20 21:31:26;;;;;;;26.88;17.95;;;;;;;;;;12987016;22;20394;-83
2024/03/20 21:36:31;;;;;;;28.92;18.65;;;;;;;;;;12971530;22;20461;-91
2024/03/20 21:41:34;;;;;;;28.77;19.17;;;;;;;;;;12975600;22;20496;-90
2024/03/20 21:46:36;;;;;;;29.55;19.10;;;;;;;;;;12970520;22;20379;-91
2024/03/20 21:51:40;;;;;;;29.52;17.85;;;;;;;;;;12975828;22;20382;-91
2024/03/20 21:56:42;;;;;;;26.38;17.98;;;;;;;;;;12975838;22;20363;-92
2024/03/20 22:01:46;;;;;;;26.60;17.55;;;;;;;;;;12996453;22;20888;-91
2024/03/20 22:06:51;;;;;;;28.15;18.13;;;;;;;;;;12976156;22;20396;-90
2024/03/20 22:11:54;;;;;;;27.27;17.67;;;;;;;;;;12979786;22;20766;-90
2024/03/20 22:16:56;;;;;;;25.70;16.85;;;;;;;;;;12979076;22;20409;-92
2024/03/20 22:22:00;;;;;;;30.00;17.60;;;;;;;;;;12982315;22;20374;-91
2024/03/20 22:27:03;;;;;;;26.88;17.35;;;;;;;;;;12980705;22;20382;-93
2024/03/20 22:32:06;;;;;;;28.42;18.48;;;;;;;;;;12979311;22;20386;-90
2024/03/20 22:37:10;;;;;;;26.50;18.15;;;;;;;;;;12993248;22;20432;-90
2024/03/20 22:42:12;;;;;;;27.10;18.40;;;;;;;;;;12991366;22;20371;-90
2024/03/20 22:47:15;;;;;;;30.75;19.33;;;;;;;;;;12999045;22;20378;-90
2024/03/20 22:52:19;;;;;;;28.98;18.17;;;;;;;;;;12998579;22;20782;-91
2024/03/20 22:57:22;;;;;;;29.80;18.53;;;;;;;;;;12979126;22;20409;-90
2024/03/20 23:02:24;;;;;;;28.40;18.07;;;;;;;;;;13002619;22;20366;-90
2024/03/20 23:07:28;;;;;;;30.33;18.63;;;;;;;;;;12979260;22;20465;-91
2024/03/20 23:12:30;;;;;;;29.05;19.08;;;;;;;;;;12978504;22;20444;-90
2024/03/20 23:17:32;;;;;;;28.58;17.40;;;;;;;;;;12978046;22;20915;-90
2024/03/20 23:22:37;;;;;;;30.53;18.63;;;;;;;;;;12989505;22;20405;-90
2024/03/20 23:27:39;;;;;;;29.17;18.97;;;;;;;;;;12986334;22;20845;-90
2024/03/20 23:32:43;;;;;;;31.37;18.83;;;;;;;;;;13007160;22;20421;-90
2024/03/20 23:37:47;;;;;;;28.95;18.42;;;;;;;;;;12985870;22;20436;-91
2024/03/20 23:42:49;;;;;;;29.05;19.02;;;;;;;;;;12985355;22;20367;-90
2024/03/20 23:47:51;;;;;;;32.17;19.38;;;;;;;;;;12980879;22;20387;-91
2024/03/20 23:52:55;;;;;;;30.43;18.83;;;;;;;;;;12981949;22;20738;-90
2024/03/20 23:57:57;;;;;;;27.20;17.55;;;;;;;;;;12984352;22;20367;-90
